Time;durP1;ratioP1;P1;durP2;ratioP2;P2;SDS_P1;SDS_P2;PMS_P1;PMS_P2;Temp;Humidity;BMP_temperature;BMP_pressure;BME280_temperature;BME280_humidity;BME280_pressure;Samples;Min_cycle;Max_cycle;Signal;HPM_P1;HPM_P2
2021/12/15 00:00:20;;;;;;;;;;;27.10;90.40;;;;;;5037549;28;19913;-77
2021/12/15 00:02:50;;;;;;;;;;;27.20;90.30;;;;;;5055351;28;19995;-76
2021/12/15 00:05:22;;;;;;;;;;;27.40;89.80;;;;;;5037395;28;19928;-77
2021/12/15 00:07:52;;;;;;;;;;;27.50;87.70;;;;;;5055051;28;20159;-77
2021/12/15 00:10:19;;;;;;;;;;;27.60;85.70;;;;;;5037499;28;20010;-77
2021/12/15 00:12:46;;;;;;;;;;;27.60;85.20;;;;;;5054207;28;19909;-77
2021/12/15 00:15:14;;;;;;;;;;;27.80;85.50;;;;;;5055155;28;19908;-77
2021/12/15 00:17:41;;;;;;;;;;;27.90;84.90;;;;;;5054888;28;19921;-77
2021/12/15 00:20:09;;;;;;;;;;;28.00;85.30;;;;;;5055087;28;20324;-77
2021/12/15 00:22:36;;;;;;;;;;;28.10;84.10;;;;;;5054954;28;19909;-77
2021/12/15 00:25:04;;;;;;;;;;;28.10;81.80;;;;;;5054937;28;20334;-76
2021/12/15 00:27:30;;;;;;;;;;;28.40;82.70;;;;;;5037126;28;19935;-76
2021/12/15 00:29:57;;;;;;;;;;;28.50;81.50;;;;;;5053903;28;19913;-77
2021/12/15 00:32:24;;;;;;;;;;;28.70;80.30;;;;;;5035528;28;19963;-77
2021/12/15 00:34:51;;;;;;;;;;;28.90;80.20;;;;;;5035917;28;20284;-73
2021/12/15 00:37:18;;;;;;;;;;;28.90;80.20;;;;;;5054166;28;20008;-74
2021/12/15 00:39:45;;;;;;;;;;;28.90;77.10;;;;;;5053824;28;19987;-76
2021/12/15 00:42:12;;;;;;;;;;;29.10;77.60;;;;;;5053925;28;19913;-75
2021/12/15 00:44:38;;;;;;;;;;;29.20;76.60;;;;;;5054434;28;19919;-74
2021/12/15 00:47:05;;;;;;;;;;;29.30;76.40;;;;;;5051499;28;19970;-74
2021/12/15 00:49:32;;;;;;;;;;;29.30;70.90;;;;;;5054299;28;19971;-74
2021/12/15 00:52:00;;;;;;;;;;;29.40;71.10;;;;;;5045336;28;19909;-75
2021/12/15 00:54:27;;;;;;;;;;;29.70;72.70;;;;;;5034254;28;20004;-74
2021/12/15 00:56:54;;;;;;;;;;;29.80;71.10;;;;;;5034310;28;20404;-75
2021/12/15 00:59:21;;;;;;;;;;;30.00;70.50;;;;;;5034128;28;19913;-74
2021/12/15 01:01:48;;;;;;;;;;;30.30;68.90;;;;;;5034256;28;20378;-74
2021/12/15 01:04:16;;;;;;;;;;;30.40;67.00;;;;;;5043886;28;19908;-74
2021/12/15 01:06:44;;;;;;;;;;;30.40;69.10;;;;;;5036206;28;20095;-76
2021/12/15 01:09:13;;;;;;;;;;;30.60;70.30;;;;;;5036309;28;19975;-77
2021/12/15 01:19:46;;;;;;;;;;;30.90;67.60;;;;;;5053935;28;19963;-75
2021/12/15 01:20:04;;;;;;;;;;;31.00;63.60;;;;;;5053852;28;19916;-81
2021/12/15 01:22:35;;;;;;;;;;;31.20;64.60;;;;;;5053534;28;19944;-77
2021/12/15 01:25:04;;;;;;;;;;;31.40;64.00;;;;;;5040435;28;19909;-74
2021/12/15 01:27:31;;;;;;;;;;;31.50;63.90;;;;;;5048447;28;19971;-75
2021/12/15 01:29:57;;;;;;;;;;;31.70;63.90;;;;;;5053585;28;20341;-74
2021/12/15 01:32:24;;;;;;;;;;;31.90;65.10;;;;;;5053257;28;19917;-74
2021/12/15 01:34:51;;;;;;;;;;;32.10;65.00;;;;;;5053604;28;19959;-74
2021/12/15 01:37:18;;;;;;;;;;;32.30;65.10;;;;;;5053301;28;19909;-74
2021/12/15 01:39:45;;;;;;;;;;;32.20;62.60;;;;;;5053291;28;19924;-75
2021/12/15 01:42:12;;;;;;;;;;;32.30;62.20;;;;;;5053391;28;19909;-77
2021/12/15 01:47:23;;;;;;;;;;;32.50;59.60;;;;;;5053429;28;20044;-81
2021/12/15 01:49:51;;;;;;;;;;;32.60;60.70;;;;;;5053200;28;20292;-78
2021/12/15 01:52:23;;;;;;;;;;;32.90;61.40;;;;;;5035715;28;20277;-78
2021/12/15 01:54:51;;;;;;;;;;;33.00;59.90;;;;;;5053127;28;20039;-76
2021/12/15 01:57:20;;;;;;;;;;;32.80;57.80;;;;;;5053484;28;20045;-72
2021/12/15 01:59:47;;;;;;;;;;;33.00;58.80;;;;;;5053112;28;20408;-74
2021/12/15 02:02:15;;;;;;;;;;;33.20;58.70;;;;;;5053193;28;19916;-75
2021/12/15 02:04:42;;;;;;;;;;;33.40;60.30;;;;;;5053067;28;19931;-74
2021/12/15 02:07:11;;;;;;;;;;;33.50;56.40;;;;;;5053011;28;19915;-74
2021/12/15 02:10:20;;;;;;;;;;;33.50;55.10;;;;;;5052807;28;19995;-76
2021/12/15 02:12:32;;;;;;;;;;;33.70;54.40;;;;;;5044347;28;19913;-74
2021/12/15 02:14:58;;;;;;;;;;;33.50;53.30;;;;;;5034955;28;19972;-75
2021/12/15 02:17:25;;;;;;;;;;;33.50;52.50;;;;;;5052978;28;19916;-76
2021/12/15 02:19:52;;;;;;;;;;;33.50;53.30;;;;;;5052762;28;19913;-73
2021/12/15 02:22:19;;;;;;;;;;;33.80;53.60;;;;;;5052976;28;19963;-73
2021/12/15 02:24:49;;;;;;;;;;;34.10;53.40;;;;;;5035019;28;19908;-74
2021/12/15 02:27:15;;;;;;;;;;;34.30;52.60;;;;;;5053020;28;19915;-80
2021/12/15 02:29:45;;;;;;;;;;;34.40;54.40;;;;;;5035152;28;20365;-80
2021/12/15 02:35:07;;;;;;;;;;;34.70;53.20;;;;;;5054238;28;19912;-75
2021/12/15 02:37:30;;;;;;;;;;;34.90;51.80;;;;;;5056089;28;20393;-74
2021/12/15 02:40:03;;;;;;;;;;;34.90;51.10;;;;;;5056591;28;20269;-74
2021/12/15 02:42:30;;;;;;;;;;;35.00;53.30;;;;;;5056969;28;19916;-74
2021/12/15 02:44:57;;;;;;;;;;;35.30;53.30;;;;;;5056757;28;19909;-74
2021/12/15 02:47:25;;;;;;;;;;;35.40;51.90;;;;;;5056675;28;19921;-73
2021/12/15 02:49:52;;;;;;;;;;;35.50;51.70;;;;;;5056064;28;20037;-75
2021/12/15 02:52:19;;;;;;;;;;;35.90;54.20;;;;;;5055776;28;20288;-74
2021/12/15 02:54:45;;;;;;;;;;;36.10;53.90;;;;;;5056153;28;20395;-75
2021/12/15 02:57:13;;;;;;;;;;;36.30;52.60;;;;;;5056136;28;19913;-84
2021/12/15 03:00:05;;;;;;;;;;;36.30;51.90;;;;;;5038102;28;19919;-69
2021/12/15 03:05:32;;;;;;;;;;;36.40;49.50;;;;;;5056731;28;19971;-75
2021/12/15 03:08:07;;;;;;;;;;;36.50;49.40;;;;;;5056362;28;20449;-75
2021/12/15 03:16:03;;;;;;;;;;;37.40;50.80;;;;;;5056135;28;19916;-73
2021/12/15 03:18:30;;;;;;;;;;;37.40;49.30;;;;;;5056108;28;20003;-73
2021/12/15 03:21:01;;;;;;;;;;;37.50;50.20;;;;;;5038325;28;19999;-78
2021/12/15 03:23:51;;;;;;;;;;;37.60;48.30;;;;;;5056135;28;19910;-74
2021/12/15 03:26:19;;;;;;;;;;;37.80;48.10;;;;;;5056172;28;19912;-74
2021/12/15 03:35:04;;;;;;;;;;;38.10;48.60;;;;;;5056150;28;19915;-73
2021/12/15 03:37:22;;;;;;;;;;;38.10;47.30;;;;;;5042490;28;19990;-76
2021/12/15 03:39:53;;;;;;;;;;;38.30;48.00;;;;;;5023905;28;19909;-75
2021/12/15 03:42:23;;;;;;;;;;;38.30;46.90;;;;;;5050610;28;19913;-75
2021/12/15 03:44:50;;;;;;;;;;;38.20;45.50;;;;;;5053300;28;20358;-75
2021/12/15 03:47:19;;;;;;;;;;;38.00;46.90;;;;;;5055544;28;19908;-75
2021/12/15 03:49:46;;;;;;;;;;;38.10;48.20;;;;;;5054318;28;19921;-75
2021/12/15 03:52:12;;;;;;;;;;;38.00;46.00;;;;;;5055003;28;19920;-75
2021/12/15 03:54:39;;;;;;;;;;;38.00;45.50;;;;;;5055627;28;20012;-75
2021/12/15 03:57:09;;;;;;;;;;;38.00;44.30;;;;;;5054356;28;19920;-74
2021/12/15 03:59:40;;;;;;;;;;;37.90;44.40;;;;;;5051351;28;19909;-75
2021/12/15 04:02:07;;;;;;;;;;;38.00;45.40;;;;;;5054289;28;19919;-75
2021/12/15 04:04:34;;;;;;;;;;;38.30;44.40;;;;;;5053423;28;20004;-75
2021/12/15 04:07:00;;;;;;;;;;;38.50;45.40;;;;;;5054046;28;19920;-76
2021/12/15 04:09:27;;;;;;;;;;;38.80;46.80;;;;;;5036083;28;19913;-76
2021/12/15 04:11:55;;;;;;;;;;;38.90;46.90;;;;;;5054218;28;19909;-76
2021/12/15 04:14:28;;;;;;;;;;;39.00;46.30;;;;;;5053972;28;19909;-75
2021/12/15 04:17:03;;;;;;;;;;;39.20;46.10;;;;;;5052827;28;19909;-76
2021/12/15 04:19:30;;;;;;;;;;;39.40;46.20;;;;;;5059971;28;19917;-76
2021/12/15 04:21:57;;;;;;;;;;;39.50;45.90;;;;;;5033848;28;19916;-75
2021/12/15 04:24:26;;;;;;;;;;;39.70;46.30;;;;;;5037115;28;19917;-76
2021/12/15 04:26:53;;;;;;;;;;;39.70;45.80;;;;;;5037704;28;19908;-76
2021/12/15 04:29:20;;;;;;;;;;;39.80;44.60;;;;;;5054441;28;19920;-75
2021/12/15 04:31:53;;;;;;;;;;;39.80;44.10;;;;;;5035399;28;20361;-75
2021/12/15 04:34:19;;;;;;;;;;;39.80;44.90;;;;;;5054907;28;20009;-74
2021/12/15 04:36:47;;;;;;;;;;;39.80;44.20;;;;;;5054449;28;19908;-75
2021/12/15 04:39:15;;;;;;;;;;;39.70;44.60;;;;;;5054419;28;20390;-74
2021/12/15 04:41:46;;;;;;;;;;;39.60;45.70;;;;;;5054262;28;19920;-74
2021/12/15 04:44:13;;;;;;;;;;;39.70;43.90;;;;;;5053006;28;20289;-74
2021/12/15 04:46:41;;;;;;;;;;;39.80;44.80;;;;;;5031163;28;20305;-73
2021/12/15 04:49:08;;;;;;;;;;;39.70;46.00;;;;;;5033531;28;19913;-74
2021/12/15 04:51:35;;;;;;;;;;;39.50;44.30;;;;;;5034503;28;19909;-73
2021/12/15 04:54:02;;;;;;;;;;;39.50;43.30;;;;;;5034318;28;19921;-74
2021/12/15 04:56:29;;;;;;;;;;;39.20;44.20;;;;;;5050058;28;19995;-75
2021/12/15 04:58:55;;;;;;;;;;;39.20;43.30;;;;;;5053705;28;19908;-75
2021/12/15 05:01:22;;;;;;;;;;;39.20;43.80;;;;;;5053339;28;19958;-74
2021/12/15 05:03:49;;;;;;;;;;;39.30;44.30;;;;;;5054146;28;19908;-74
2021/12/15 05:06:16;;;;;;;;;;;39.50;43.70;;;;;;5053889;28;19909;-76
2021/12/15 05:08:42;;;;;;;;;;;39.80;45.30;;;;;;5053713;28;19959;-76
2021/12/15 05:11:09;;;;;;;;;;;39.90;44.20;;;;;;5053926;28;20372;-75
2021/12/15 05:13:36;;;;;;;;;;;40.00;46.20;;;;;;5053803;28;19913;-88
2021/12/15 05:16:04;;;;;;;;;;;39.90;44.30;;;;;;5054203;28;19909;-81
2021/12/15 05:18:30;;;;;;;;;;;39.90;43.00;;;;;;5053617;28;19924;-76
2021/12/15 05:20:59;;;;;;;;;;;39.80;42.00;;;;;;5053819;28;19996;-76
2021/12/15 05:23:31;;;;;;;;;;;39.90;43.10;;;;;;5053612;28;20063;-70
2021/12/15 05:25:58;;;;;;;;;;;40.10;44.10;;;;;;5053791;28;19909;-75
2021/12/15 05:28:25;;;;;;;;;;;40.00;44.60;;;;;;5035551;28;20015;-75
2021/12/15 05:30:52;;;;;;;;;;;40.10;43.80;;;;;;5053434;28;19932;-75
2021/12/15 05:33:18;;;;;;;;;;;40.20;46.40;;;;;;5053502;28;19909;-74
2021/12/15 05:35:45;;;;;;;;;;;40.30;46.10;;;;;;5053459;28;19909;-76
2021/12/15 05:38:12;;;;;;;;;;;40.40;47.70;;;;;;5052933;28;19909;-75
2021/12/15 05:40:39;;;;;;;;;;;40.50;48.10;;;;;;5053499;28;19909;-75
2021/12/15 05:43:06;;;;;;;;;;;40.40;47.70;;;;;;5053518;28;19914;-75
2021/12/15 05:45:33;;;;;;;;;;;40.30;47.70;;;;;;5035530;28;19992;-72
2021/12/15 05:48:00;;;;;;;;;;;39.30;49.20;;;;;;5037210;28;19932;-72
2021/12/15 05:50:27;;;;;;;;;;;38.30;49.70;;;;;;5053605;28;19912;-73
2021/12/15 05:52:55;;;;;;;;;;;37.40;51.70;;;;;;5053270;28;19909;-73
2021/12/15 05:55:21;;;;;;;;;;;36.80;52.80;;;;;;5053178;28;20007;-73
2021/12/15 05:57:48;;;;;;;;;;;37.10;51.90;;;;;;5035332;28;19959;-74
2021/12/15 06:00:16;;;;;;;;;;;37.50;50.60;;;;;;5053161;28;19976;-72
2021/12/15 06:02:43;;;;;;;;;;;37.30;51.40;;;;;;5053145;28;19940;-73
2021/12/15 06:05:10;;;;;;;;;;;36.90;51.30;;;;;;5053199;28;19909;-75
2021/12/15 06:07:37;;;;;;;;;;;36.40;51.80;;;;;;5053264;28;19912;-76
2021/12/15 06:10:07;;;;;;;;;;;36.20;52.40;;;;;;5052060;28;19923;-74
2021/12/15 06:12:34;;;;;;;;;;;36.00;53.10;;;;;;5053040;28;20000;-73
2021/12/15 06:15:02;;;;;;;;;;;35.70;54.40;;;;;;5053016;28;20070;-73
2021/12/15 06:17:29;;;;;;;;;;;35.50;55.10;;;;;;5052573;28;20383;-79
2021/12/15 06:19:56;;;;;;;;;;;35.20;56.20;;;;;;5051394;28;20137;-71
2021/12/15 06:22:28;;;;;;;;;;;34.90;56.60;;;;;;5052953;28;20280;-75
2021/12/15 06:24:55;;;;;;;;;;;34.80;56.90;;;;;;5052853;28;19909;-72
2021/12/15 06:27:22;;;;;;;;;;;34.60;57.40;;;;;;5052860;28;20071;-68
2021/12/15 06:29:49;;;;;;;;;;;34.40;57.70;;;;;;5052310;28;20289;-72
2021/12/15 06:32:16;;;;;;;;;;;34.20;57.90;;;;;;5052484;28;19936;-73
2021/12/15 06:34:43;;;;;;;;;;;34.10;58.30;;;;;;5052576;28;19915;-72
2021/12/15 06:37:09;;;;;;;;;;;33.80;58.50;;;;;;5052657;28;19970;-79
2021/12/15 06:39:36;;;;;;;;;;;33.70;59.70;;;;;;5052632;28;20424;-73
2021/12/15 06:42:03;;;;;;;;;;;33.50;58.90;;;;;;5052632;28;19912;-72
2021/12/15 06:44:30;;;;;;;;;;;33.40;59.00;;;;;;5052570;28;19915;-75
2021/12/15 06:47:20;;;;;;;;;;;33.30;58.90;;;;;;5052703;28;19952;-75
2021/12/15 07:00:34;;;;;;;;;;;33.10;60.50;;;;;;5072582;28;19912;-72
2021/12/15 07:03:01;;;;;;;;;;;32.90;60.40;;;;;;5072407;28;19919;-72
2021/12/15 07:05:28;;;;;;;;;;;32.70;61.00;;;;;;5072425;28;19916;-73
2021/12/15 07:07:56;;;;;;;;;;;32.70;61.20;;;;;;5073487;28;19968;-68
2021/12/15 07:10:23;;;;;;;;;;;32.50;61.10;;;;;;5072326;28;19935;-69
2021/12/15 07:12:50;;;;;;;;;;;32.80;61.20;;;;;;5071935;28;19920;-72
2021/12/15 07:15:17;;;;;;;;;;;33.20;61.00;;;;;;5072325;28;20380;-72
2021/12/15 07:17:46;;;;;;;;;;;33.60;60.10;;;;;;5072217;28;19908;-72
2021/12/15 07:22:55;;;;;;;;;;;34.20;59.20;;;;;;5076097;28;19908;-72
2021/12/15 07:25:22;;;;;;;;;;;34.60;59.00;;;;;;5075701;28;19999;-72
2021/12/15 07:27:49;;;;;;;;;;;34.70;59.00;;;;;;5076036;28;19963;-73
2021/12/15 07:30:16;;;;;;;;;;;34.60;58.40;;;;;;5074727;28;19955;-72
2021/12/15 07:32:42;;;;;;;;;;;34.50;58.20;;;;;;5066282;28;19915;-72
2021/12/15 07:35:09;;;;;;;;;;;34.30;58.30;;;;;;5071087;28;19975;-73
2021/12/15 07:37:36;;;;;;;;;;;34.20;59.30;;;;;;5055706;28;19908;-74
2021/12/15 07:40:05;;;;;;;;;;;34.00;59.40;;;;;;5055547;28;20372;-73
2021/12/15 07:42:41;;;;;;;;;;;33.90;59.60;;;;;;5055655;28;19996;-74
2021/12/15 07:45:08;;;;;;;;;;;33.70;59.50;;;;;;5066750;28;19923;-74
2021/12/15 07:47:35;;;;;;;;;;;33.50;59.40;;;;;;5074402;28;20369;-74
2021/12/15 07:50:02;;;;;;;;;;;33.30;58.10;;;;;;5075357;28;19971;-73
2021/12/15 07:52:29;;;;;;;;;;;33.00;58.00;;;;;;5075501;28;19951;-73
2021/12/15 07:54:56;;;;;;;;;;;32.60;57.00;;;;;;5068935;28;19973;-73
2021/12/15 07:57:23;;;;;;;;;;;32.30;54.90;;;;;;5061974;28;20388;-73
2021/12/15 07:59:50;;;;;;;;;;;32.00;55.90;;;;;;5072507;28;19912;-73
2021/12/15 08:02:17;;;;;;;;;;;31.80;56.00;;;;;;5075343;28;20003;-73
2021/12/15 08:04:44;;;;;;;;;;;31.60;55.60;;;;;;5074345;28;19912;-73
2021/12/15 08:07:10;;;;;;;;;;;31.40;55.80;;;;;;5074473;28;19975;-73
2021/12/15 08:09:37;;;;;;;;;;;31.40;56.20;;;;;;5074031;28;19919;-74
2021/12/15 08:12:04;;;;;;;;;;;31.40;56.10;;;;;;5072638;28;20410;-73
2021/12/15 08:14:31;;;;;;;;;;;31.40;56.40;;;;;;5072614;28;19916;-72
2021/12/15 08:16:57;;;;;;;;;;;31.30;56.80;;;;;;5073654;28;20357;-72
2021/12/15 08:19:24;;;;;;;;;;;31.20;57.30;;;;;;5073740;28;19970;-72
2021/12/15 08:21:52;;;;;;;;;;;31.20;57.70;;;;;;5074885;28;20363;-72
2021/12/15 08:24:19;;;;;;;;;;;31.10;59.30;;;;;;5090248;28;20292;-72
2021/12/15 08:26:46;;;;;;;;;;;31.00;57.70;;;;;;5074841;28;19909;-73
2021/12/15 08:29:12;;;;;;;;;;;30.80;57.80;;;;;;5074625;28;19967;-72
2021/12/15 08:31:42;;;;;;;;;;;30.70;59.40;;;;;;5090096;28;19915;-74
2021/12/15 08:34:09;;;;;;;;;;;30.50;58.60;;;;;;5074123;28;19909;-72
2021/12/15 08:36:36;;;;;;;;;;;30.40;58.80;;;;;;5090193;28;19912;-73
2021/12/15 08:39:03;;;;;;;;;;;30.20;59.40;;;;;;5074507;28;20303;-75
2021/12/15 08:41:30;;;;;;;;;;;30.10;61.20;;;;;;5074596;28;19912;-73
2021/12/15 08:43:57;;;;;;;;;;;30.00;60.40;;;;;;5073662;28;19908;-70
2021/12/15 08:46:25;;;;;;;;;;;29.90;60.40;;;;;;5075635;28;19971;-72
2021/12/15 08:48:53;;;;;;;;;;;29.90;60.50;;;;;;5074169;28;20385;-71
2021/12/15 08:51:25;;;;;;;;;;;29.80;60.80;;;;;;5074654;28;19946;-71
2021/12/15 08:53:52;;;;;;;;;;;29.70;60.80;;;;;;5089120;28;19931;-71
2021/12/15 08:56:19;;;;;;;;;;;29.60;61.40;;;;;;5074104;28;19909;-70
2021/12/15 08:58:46;;;;;;;;;;;29.40;62.00;;;;;;5074435;28;19932;-73
2021/12/15 09:01:13;;;;;;;;;;;29.20;63.70;;;;;;5074392;28;19908;-71
2021/12/15 09:03:43;;;;;;;;;;;28.80;65.00;;;;;;5073964;28;19920;-72
2021/12/15 09:06:09;;;;;;;;;;;28.50;66.00;;;;;;5072938;28;19909;-72
2021/12/15 09:08:36;;;;;;;;;;;28.20;67.40;;;;;;5072721;28;19924;-75
2021/12/15 09:11:04;;;;;;;;;;;28.00;67.50;;;;;;5074337;28;19909;-72
2021/12/15 09:13:32;;;;;;;;;;;27.70;68.60;;;;;;5073944;28;19938;-74
2021/12/15 09:15:59;;;;;;;;;;;27.50;69.50;;;;;;5072380;28;19908;-75
2021/12/15 09:18:26;;;;;;;;;;;27.30;69.90;;;;;;5073985;28;19908;-75
2021/12/15 09:20:53;;;;;;;;;;;27.10;70.60;;;;;;5073811;28;20269;-75
2021/12/15 09:23:20;;;;;;;;;;;27.00;71.20;;;;;;5073734;28;19939;-74
2021/12/15 09:25:46;;;;;;;;;;;26.80;71.80;;;;;;5073540;28;20288;-76
2021/12/15 09:28:13;;;;;;;;;;;26.60;72.30;;;;;;5072111;28;20338;-75
2021/12/15 09:30:44;;;;;;;;;;;26.50;72.80;;;;;;5073195;28;20360;-74
2021/12/15 09:33:18;;;;;;;;;;;26.30;73.50;;;;;;5073448;28;20345;-75
2021/12/15 09:35:45;;;;;;;;;;;26.30;74.20;;;;;;5072422;28;20361;-75
2021/12/15 09:38:12;;;;;;;;;;;26.10;74.30;;;;;;5073381;28;19919;-75
2021/12/15 09:40:40;;;;;;;;;;;26.00;74.90;;;;;;5055674;28;20024;-74
2021/12/15 09:43:07;;;;;;;;;;;25.90;75.50;;;;;;5071982;28;20003;-74
2021/12/15 10:17:44;;;;;;;;;;;25.70;83.80;;;;;;5093340;28;19996;-74
2021/12/15 10:20:15;;;;;;;;;;;25.60;86.40;;;;;;5093352;28;19908;-73
2021/12/15 10:22:45;;;;;;;;;;;25.40;87.30;;;;;;5108953;28;20315;-78
2021/12/15 10:25:11;;;;;;;;;;;25.10;88.90;;;;;;5093351;28;19912;-72
2021/12/15 10:27:40;;;;;;;;;;;25.00;90.60;;;;;;5093172;28;19915;-73
2021/12/15 10:30:26;;;;;;;;;;;24.90;91.70;;;;;;5093099;28;19967;-78
2021/12/15 10:32:57;;;;;;;;;;;24.80;93.00;;;;;;5092952;28;19908;-72
2021/12/15 10:35:26;;;;;;;;;;;24.70;94.10;;;;;;5108763;28;19990;-76
2021/12/15 10:38:09;;;;;;;;;;;24.60;95.50;;;;;;5092522;28;19912;-83
2021/12/15 10:40:40;;;;;;;;;;;24.40;96.80;;;;;;5075550;28;19916;-80
2021/12/15 10:43:07;;;;;;;;;;;24.30;97.70;;;;;;5067489;28;20381;-79
2021/12/15 10:45:38;;;;;;;;;;;24.20;98.20;;;;;;5092729;28;19915;-76
2021/12/15 10:48:09;;;;;;;;;;;24.10;98.80;;;;;;5091462;28;19936;-77
2021/12/15 10:50:37;;;;;;;;;;;24.10;99.10;;;;;;5092605;28;19927;-77
2021/12/15 10:53:03;;;;;;;;;;;24.10;99.40;;;;;;5092480;28;19913;-76
2021/12/15 10:55:34;;;;;;;;;;;24.00;99.50;;;;;;5092942;28;20006;-75
2021/12/15 10:58:01;;;;;;;;;;;24.00;99.70;;;;;;5112534;28;19923;-76
2021/12/15 11:00:33;;;;;;;;;;;24.00;99.90;;;;;;5096657;28;19930;-75
2021/12/15 11:03:03;;;;;;;;;;;24.00;99.90;;;;;;5096337;28;19912;-75
2021/12/15 11:05:30;;;;;;;;;;;24.00;99.90;;;;;;5092037;28;19916;-74
2021/12/15 11:07:58;;;;;;;;;;;24.00;99.90;;;;;;5083228;28;19948;-77
2021/12/15 11:10:27;;;;;;;;;;;23.90;99.90;;;;;;5096431;28;19959;-73
2021/12/15 11:12:58;;;;;;;;;;;23.90;99.90;;;;;;5095838;28;19913;-79
2021/12/15 11:15:26;;;;;;;;;;;23.80;99.90;;;;;;5077627;28;19922;-75
2021/12/15 11:17:53;;;;;;;;;;;23.70;99.90;;;;;;5078220;28;19908;-79
2021/12/15 11:20:21;;;;;;;;;;;23.70;99.90;;;;;;5095987;28;19962;-77
2021/12/15 11:22:49;;;;;;;;;;;23.70;99.90;;;;;;5096571;28;19908;-77
2021/12/15 11:25:20;;;;;;;;;;;23.70;99.90;;;;;;5096522;28;19961;-77
2021/12/15 11:27:48;;;;;;;;;;;23.70;99.90;;;;;;5094916;28;20007;-78
2021/12/15 11:30:15;;;;;;;;;;;23.70;99.90;;;;;;5095593;28;19952;-76
2021/12/15 11:32:43;;;;;;;;;;;23.60;99.90;;;;;;5094416;28;19961;-76
2021/12/15 11:35:16;;;;;;;;;;;23.60;99.90;;;;;;5096198;28;20015;-76
2021/12/15 11:37:46;;;;;;;;;;;23.50;99.90;;;;;;5078393;28;19978;-81
2021/12/15 11:40:13;;;;;;;;;;;23.40;99.90;;;;;;5096235;28;19912;-73
2021/12/15 11:42:40;;;;;;;;;;;23.40;99.90;;;;;;5111848;28;19916;-73
2021/12/15 11:45:08;;;;;;;;;;;23.40;99.90;;;;;;5095923;28;20322;-72
2021/12/15 11:47:36;;;;;;;;;;;23.30;99.90;;;;;;5095938;28;19957;-79
2021/12/15 11:50:13;;;;;;;;;;;23.30;99.90;;;;;;5094741;28;19923;-78
2021/12/15 11:52:41;;;;;;;;;;;23.20;99.90;;;;;;5092563;28;19912;-78
2021/12/15 11:55:20;;;;;;;;;;;23.10;99.90;;;;;;5076476;28;19920;-77
2021/12/15 11:57:46;;;;;;;;;;;23.10;99.90;;;;;;5083638;28;19908;-74
2021/12/15 12:00:14;;;;;;;;;;;23.10;99.90;;;;;;5095116;28;20014;-75
2021/12/15 12:02:47;;;;;;;;;;;23.10;99.90;;;;;;5094036;28;19919;-79
2021/12/15 12:05:15;;;;;;;;;;;23.10;99.90;;;;;;5094642;28;19908;-78
2021/12/15 12:07:42;;;;;;;;;;;23.10;99.90;;;;;;5093072;28;20323;-79
2021/12/15 12:10:10;;;;;;;;;;;23.10;99.90;;;;;;5094765;28;20390;-78
2021/12/15 12:12:40;;;;;;;;;;;23.00;99.90;;;;;;5095415;28;19963;-78
2021/12/15 12:15:14;;;;;;;;;;;22.90;99.90;;;;;;5095329;28;20366;-74
2021/12/15 12:17:42;;;;;;;;;;;23.00;99.90;;;;;;5095308;28;19908;-79
2021/12/15 12:20:10;;;;;;;;;;;23.00;99.90;;;;;;5095207;28;19909;-79
2021/12/15 12:22:38;;;;;;;;;;;23.00;99.90;;;;;;5095099;28;19912;-75
2021/12/15 12:25:08;;;;;;;;;;;23.00;99.90;;;;;;5095175;28;19915;-77
2021/12/15 12:27:34;;;;;;;;;;;23.00;99.90;;;;;;5095104;28;19934;-76
2021/12/15 12:30:04;;;;;;;;;;;23.00;99.90;;;;;;5095324;28;20375;-76
2021/12/15 12:32:30;;;;;;;;;;;23.00;99.90;;;;;;5095475;28;19909;-76
2021/12/15 12:34:57;;;;;;;;;;;22.90;99.90;;;;;;5095131;28;19908;-76
2021/12/15 12:37:24;;;;;;;;;;;22.90;99.90;;;;;;5110914;28;20324;-73
2021/12/15 12:39:54;;;;;;;;;;;22.80;99.90;;;;;;5094976;28;20394;-75
2021/12/15 12:42:28;;;;;;;;;;;22.80;99.90;;;;;;5095387;28;19908;-75
2021/12/15 12:44:56;;;;;;;;;;;22.80;99.90;;;;;;5095119;28;20264;-75
2021/12/15 12:47:32;;;;;;;;;;;22.80;99.90;;;;;;5110706;28;20283;-76
2021/12/15 12:50:18;;;;;;;;;;;22.80;99.90;;;;;;5076817;28;19912;-75
2021/12/15 13:01:10;;;;;;;;;;;22.70;99.90;;;;;;5094838;28;19908;-75
2021/12/15 13:03:39;;;;;;;;;;;22.70;99.90;;;;;;5093432;28;20007;-75
2021/12/15 13:06:07;;;;;;;;;;;22.70;99.90;;;;;;5110456;28;19909;-75
2021/12/15 13:08:37;;;;;;;;;;;22.70;99.90;;;;;;5110639;28;19914;-75
2021/12/15 13:11:10;;;;;;;;;;;22.70;99.90;;;;;;5094574;28;19908;-74
2021/12/15 13:13:38;;;;;;;;;;;22.70;99.90;;;;;;5094009;28;19951;-76
2021/12/15 13:16:06;;;;;;;;;;;22.70;99.90;;;;;;5076342;28;20360;-73
2021/12/15 13:18:49;;;;;;;;;;;22.70;99.90;;;;;;5093771;28;19908;-75
2021/12/15 13:21:19;;;;;;;;;;;22.70;99.90;;;;;;5094037;28;19908;-74
2021/12/15 13:23:58;;;;;;;;;;;22.70;99.90;;;;;;5093935;28;20398;-74
2021/12/15 13:29:28;;;;;;;;;;;22.70;99.90;;;;;;5093993;28;20344;-75
2021/12/15 13:31:56;;;;;;;;;;;22.70;99.90;;;;;;5093659;28;20383;-75
2021/12/15 13:34:37;;;;;;;;;;;22.70;99.90;;;;;;5074740;28;19914;-75
2021/12/15 13:37:03;;;;;;;;;;;22.70;99.90;;;;;;5093898;28;19908;-75
2021/12/15 13:39:45;;;;;;;;;;;22.70;99.90;;;;;;5093793;28;20372;-75
2021/12/15 13:42:15;;;;;;;;;;;22.60;99.90;;;;;;5093796;28;20372;-74
2021/12/15 13:44:47;;;;;;;;;;;22.70;99.90;;;;;;5059397;28;19912;-75
2021/12/15 13:47:17;;;;;;;;;;;22.70;99.90;;;;;;5093698;28;19908;-75
2021/12/15 13:49:43;;;;;;;;;;;22.60;99.90;;;;;;5075423;28;19912;-75
2021/12/15 13:52:28;;;;;;;;;;;22.60;99.90;;;;;;5093668;28;20313;-76
2021/12/15 13:54:56;;;;;;;;;;;22.70;99.90;;;;;;5075184;28;19920;-76
2021/12/15 13:57:27;;;;;;;;;;;22.70;99.90;;;;;;5093588;28;20261;-75
2021/12/15 13:59:54;;;;;;;;;;;22.70;99.90;;;;;;5075499;28;20428;-75
2021/12/15 14:02:21;;;;;;;;;;;22.60;99.90;;;;;;5093701;28;19912;-75
2021/12/15 14:04:51;;;;;;;;;;;22.60;99.90;;;;;;5093529;28;20331;-75
2021/12/15 14:07:36;;;;;;;;;;;22.60;99.90;;;;;;5093514;28;19955;-75
2021/12/15 14:10:24;;;;;;;;;;;22.60;99.90;;;;;;5093327;28;20014;-75
2021/12/15 14:12:52;;;;;;;;;;;22.60;99.90;;;;;;5093359;28;19959;-75
2021/12/15 14:15:37;;;;;;;;;;;22.60;99.90;;;;;;5093255;28;19956;-75
2021/12/15 14:18:12;;;;;;;;;;;22.60;99.90;;;;;;5093143;28;19908;-75
2021/12/15 14:20:45;;;;;;;;;;;22.50;99.90;;;;;;5093245;28;19915;-75
2021/12/15 14:23:13;;;;;;;;;;;22.50;99.90;;;;;;5093228;28;19934;-75
2021/12/15 14:25:41;;;;;;;;;;;22.60;99.90;;;;;;5075168;28;19952;-74
2021/12/15 14:28:28;;;;;;;;;;;22.60;99.90;;;;;;5075097;28;19914;-76
2021/12/15 14:31:05;;;;;;;;;;;22.60;99.90;;;;;;5076364;28;19912;-75
2021/12/15 14:33:43;;;;;;;;;;;22.50;99.90;;;;;;5079404;28;19916;-75
2021/12/15 14:36:17;;;;;;;;;;;22.50;99.90;;;;;;5079061;28;19944;-75
2021/12/15 14:38:45;;;;;;;;;;;22.50;99.90;;;;;;5096743;28;20383;-75
2021/12/15 14:41:13;;;;;;;;;;;22.50;99.90;;;;;;5078826;28;20368;-76
2021/12/15 14:43:40;;;;;;;;;;;22.50;99.90;;;;;;5097082;28;19908;-76
2021/12/15 14:46:26;;;;;;;;;;;22.60;99.90;;;;;;5097104;28;19958;-76
2021/12/15 14:49:04;;;;;;;;;;;22.60;99.90;;;;;;5078810;28;19912;-76
2021/12/15 14:51:31;;;;;;;;;;;22.60;99.90;;;;;;5096957;28;19908;-76
2021/12/15 14:53:58;;;;;;;;;;;22.50;99.90;;;;;;5096751;28;19973;-75
2021/12/15 14:56:44;;;;;;;;;;;22.50;99.90;;;;;;5097186;28;20306;-76
2021/12/15 14:59:13;;;;;;;;;;;22.60;99.90;;;;;;5096586;28;20007;-76
2021/12/15 15:01:39;;;;;;;;;;;22.50;99.90;;;;;;5078629;28;19915;-75
2021/12/15 15:04:07;;;;;;;;;;;22.50;99.90;;;;;;5096780;28;20311;-76
2021/12/15 15:06:34;;;;;;;;;;;22.50;99.90;;;;;;5096802;28;19914;-76
2021/12/15 15:09:10;;;;;;;;;;;22.50;99.90;;;;;;5061866;28;19919;-77
2021/12/15 15:11:36;;;;;;;;;;;22.50;99.90;;;;;;5096713;28;19915;-75
2021/12/15 15:14:03;;;;;;;;;;;22.50;99.90;;;;;;5096584;28;19974;-75
2021/12/15 15:16:34;;;;;;;;;;;22.50;99.90;;;;;;5078344;28;20356;-75
2021/12/15 15:19:15;;;;;;;;;;;22.50;99.90;;;;;;5096435;28;19909;-75
2021/12/15 15:21:42;;;;;;;;;;;22.60;99.90;;;;;;5078242;28;19919;-75
2021/12/15 15:24:22;;;;;;;;;;;22.50;99.90;;;;;;5078170;28;19929;-75
2021/12/15 15:26:55;;;;;;;;;;;22.50;99.90;;;;;;5096813;28;19998;-74
2021/12/15 15:29:30;;;;;;;;;;;22.50;99.90;;;;;;5078459;28;19916;-74
2021/12/15 15:32:04;;;;;;;;;;;22.40;99.90;;;;;;5078053;28;19908;-75
2021/12/15 15:34:31;;;;;;;;;;;22.40;99.90;;;;;;5078196;28;19932;-76
2021/12/15 15:36:58;;;;;;;;;;;22.40;99.90;;;;;;5078120;28;20432;-75
2021/12/15 15:39:24;;;;;;;;;;;22.30;99.90;;;;;;5077891;28;19912;-75
2021/12/15 15:41:51;;;;;;;;;;;22.40;99.90;;;;;;5077641;28;20003;-76
2021/12/15 15:44:18;;;;;;;;;;;22.30;99.90;;;;;;5095371;28;19908;-75
2021/12/15 15:46:45;;;;;;;;;;;22.30;99.90;;;;;;5077435;28;19912;-76
2021/12/15 15:49:16;;;;;;;;;;;22.30;99.90;;;;;;5077691;28;19916;-76